Erwin, TN

8:14 AM EST on December 07, 2016 (GMT -0500)
Erwin | | Change Station

Elev 1923 ft 36.15 °N, 82.40 °W | Updated 5 seconds ago

Partly Cloudy
Partly Cloudy
39.7 °F
Feels Like 40 °F
N
0.0
Wind Variable Wind from ENE
Gusts 0.0 mph

Today
High -- | Low -- °F
--% Chance of Precip.
Yesterday
High -- | Low -- °F
Precip. -- in
Pressure 30.07 in
Visibility 10.0 miles
Clouds Few 8000 ft
Windchill 40 °F
Dew Point 37 °F
Humidity 89%
Rainfall 0.00 in
Snow Depth Not available.
7:27 AM 5:14 PM
First Quarter, 52% visible
METAR KTRI 071253Z 29003KT 10SM FEW080 02/01 A3009 RMK AO2 SLP183 T00220006
Pressure 30.07 in
Visibility 10.0 miles
Clouds Few 8000 ft
Windchill 40 °F
Dew Point 37 °F
Humidity 89%
Rainfall 0.00 in
Snow Depth Not available.
7:27 AM 5:14 PM
First Quarter, 52% visible
METAR KTRI 071253Z 29003KT 10SM FEW080 02/01 A3009 RMK AO2 SLP183 T00220006

10-Day Weather Forecast

Almanac

Astronomy

Dec. 07, 2016 Rise Set
Actual Time
Civil Twilight
Nautical Twilight
Astronomical Twilight
Moon
Length of Visible Light
Length of Day
Tomorrow will be .
, % of the Moon is Illuminated

Today's Extremes

State Highs State Lows

Community

WunderPhotos

Upload Photos

1,956,112 photos uploaded!

WunderBlog® & News

Nearby

Air Quality

  Air Quality AQ Index Pollutant
Not available.

Snow Depth

Station Depth Elevation

Earthquake Activity

City Distance Mag. Time & Date
Minimum magnitude displayed is 2.5.

Coastal Water Temperatures

Place Temperature

Stations

Nearby Weather Stations

Station Location Temp. Windchill Dew Point Humidity Wind Precip. Elev Updated Type
                   

Watches & Warnings

There are currently no watches in effect.